Close Search

Base
°C
Summit
°C

WEATHER AT A GLANCE

Image Slideshow

RMR Village

Revelstoke Mountain Resort -  RMR Village Webcam

Top of The Stoke

Revelstoke Mountain Resort -  Top of The Stoke Webcam

Top of Stellar

Revelstoke Mountain Resort -  Top of Stellar Webcam

Mackenzie Outpost

Revelstoke Mountain Resort -  Mackenzie Outpost Webcam

Ripper

Revelstoke Mountain Resort -  Ripper Webcam
Base
°C
Summit
°C
Wind (Summit)
km/h

Today's Forecast

Subpeak Weather

Time Avg. Air Temp Dew Point Avg. Rel Humidity Avg. 2 Min Wind Speed Max Gust Velocity MGV Time MGV Direction Avg. Spot Wind Velocity
2026-05-09 11:40:002° C2° C99%8 km/h11 km/h11:39:00SE6 km/h
10:40:002° C1° C97%0 km/h2 km/h10:36:00NE0 km/h
09:40:002° C1° C92%0 km/h3 km/h09:38:00S2 km/h
08:40:001° C-0° C90%4 km/h6 km/h08:36:00S4 km/h
07:40:001° C-1° C92%0 km/h4 km/h07:37:00W1 km/h
06:40:00-0° C-0° C100%8 km/h11 km/h06:40:00NW9 km/h
05:40:00-1° C-2° C100%15 km/h22 km/h05:36:00NW15 km/h
04:40:00-1° C-1° C100%9 km/h18 km/h04:37:00NW12 km/h
03:40:00-1° C-1° C100%16 km/h18 km/h03:39:00NW16 km/h
02:40:00-1° C-1° C100%15 km/h16 km/h02:37:00NW13 km/h
01:40:00-0° C-0° C100%19 km/h21 km/h01:40:00NW19 km/h
00:40:000° C0° C100%12 km/h15 km/h00:40:00W11 km/h
23:40:000° C-0° C98%18 km/h20 km/h23:37:00W18 km/h
22:40:000° C0° C100%8 km/h14 km/h22:37:00W9 km/h
21:40:001° C-1° C89%12 km/h16 km/h21:36:00W13 km/h
20:40:001° C1° C100%7 km/h10 km/h20:38:00NW7 km/h
19:40:001° C1° C100%14 km/h15 km/h19:39:00W11 km/h
18:40:002° C1° C95%13 km/h19 km/h18:40:00W14 km/h
17:40:002° C2° C96%14 km/h15 km/h17:40:00S14 km/h
16:40:003° C1° C89%16 km/h18 km/h16:36:00S16 km/h
15:40:003° C0° C81%15 km/h17 km/h15:39:00S14 km/h
14:40:004° C-0° C75%12 km/h19 km/h14:36:00S14 km/h
13:40:005° C-1° C62%11 km/h13 km/h13:40:00S11 km/h
12:40:004° C-2° C64%10 km/h13 km/h12:37:00S11 km/h

Time Avg. Air Temp Dew Point Avg. Rel Humidity Avg. 2 Min Wind Speed Max Gust Velocity MGV Time MGV Direction Avg. Spot Wind Velocity
2026-05-09 11:40:002° C2° C99%8 km/h11 km/h11:39:00SE6 km/h
11:35:002° C2° C99%5 km/h10 km/h11:32:00SW6 km/h
11:30:002° C2° C97%3 km/h11 km/h11:26:00S4 km/h
11:25:002° C2° C94%1 km/h10 km/h11:21:00SE4 km/h
11:20:003° C2° C96%6 km/h9 km/h11:20:00S5 km/h
11:15:002° C2° C97%6 km/h10 km/h11:12:00SE6 km/h
11:10:002° C2° C99%1 km/h4 km/h11:06:00SE1 km/h
11:05:002° C2° C98%6 km/h9 km/h11:04:00S4 km/h
11:00:002° C1° C92%2 km/h4 km/h10:57:00SE2 km/h
10:55:002° C1° C90%0 km/h3 km/h10:51:00E1 km/h
10:50:002° C0° C91%1 km/h4 km/h10:50:00NW1 km/h
10:45:002° C1° C94%0 km/h0 km/h10:45:00E0 km/h
10:40:002° C1° C97%0 km/h2 km/h10:36:00NE0 km/h

We value your privacy
We use cookies to enhance your browsing experience, serve personalized ads or content, and analyze our traffic. By clicking "Allow Cookies", you consent to our use of cookies. For additional details view our Privacy Policy.
Cookie preferences

You can control how your data is used on our website. Learn more below about the cookies we use by reviewing our Privacy Policy.

Your cookie preferences have been saved.